Terminal Aerodrome Forecast
Issued by NWS Bismarck, ND

Home | Current Version | Previous Version | Text Only | Print | Product List | Glossary On
Versions: 1 2 3 4 5 6 7 8 9 10 11 12 13 14 15 16 17 18 19 20 21 22 23 24 25 26 27 28
060
FTUS43 KBIS 251128
TAFBIS
TAF
KBIS 251128Z 2512/2612 31021G31KT P6SM VCSH BKN020
     FM251400 31022G32KT P6SM SCT035
     FM251700 31025G35KT P6SM FEW200
     FM260200 30010KT P6SM SKC=

USA.gov is the U.S. government's official web portal to all federal, state and local government web resources and services.